Sunny South, Alabama
Current Conditions -  °F | °C
As of 9:55 PM on Tuesday 27 Jan 2015 (Local Time) from KDYA Reporting Station
Clear Clear  
Wind Chill: 41°   Ceiling: Unl
Heat Index: 44°   Visibility: 10mi
Dew Point: 33°   Wind: 6mph
Humidity: 65%   Direction: 350°N
Pressure: 30.17"   Gusts: NA
Location:  31.949°N, 87.5576°W
Report Text: KDYA 280355Z AUTO 35005KT 10SM CLR 07/01 A3017 RMK AO2 T00680006
Loading
Personal Weather Stations






























Interactive Weather Map New forecast layout! Learn more

10-Day Weather Forecast

Advertisements
Track Severe Weather on mobile